sensor_id;sensor_type;location;lat;lon;timestamp;temperature;humidity
20492;DHT22;10404;51.468;6.762;2023-12-29T00:00:26;9.40;78.20
20492;DHT22;10404;51.468;6.762;2023-12-29T00:02:52;9.40;78.30
20492;DHT22;10404;51.468;6.762;2023-12-29T00:05:17;9.40;78.20
20492;DHT22;10404;51.468;6.762;2023-12-29T00:07:43;9.40;78.20
20492;DHT22;10404;51.468;6.762;2023-12-29T00:10:08;9.40;78.20
20492;DHT22;10404;51.468;6.762;2023-12-29T00:12:34;9.40;78.20
20492;DHT22;10404;51.468;6.762;2023-12-29T00:15:00;9.40;78.00
20492;DHT22;10404;51.468;6.762;2023-12-29T00:17:25;9.40;78.10
20492;DHT22;10404;51.468;6.762;2023-12-29T00:19:51;9.40;78.20
20492;DHT22;10404;51.468;6.762;2023-12-29T00:22:16;9.40;78.20
20492;DHT22;10404;51.468;6.762;2023-12-29T00:24:42;9.40;78.10
20492;DHT22;10404;51.468;6.762;2023-12-29T00:27:08;9.40;78.10
20492;DHT22;10404;51.468;6.762;2023-12-29T00:29:34;9.40;78.10
20492;DHT22;10404;51.468;6.762;2023-12-29T00:31:59;9.40;78.10
20492;DHT22;10404;51.468;6.762;2023-12-29T00:34:28;9.40;78.00
20492;DHT22;10404;51.468;6.762;2023-12-29T00:36:53;9.40;78.10
20492;DHT22;10404;51.468;6.762;2023-12-29T00:39:19;9.40;78.00
20492;DHT22;10404;51.468;6.762;2023-12-29T00:41:45;9.40;78.00
20492;DHT22;10404;51.468;6.762;2023-12-29T00:44:10;9.40;78.00
20492;DHT22;10404;51.468;6.762;2023-12-29T00:46:36;9.40;78.00
20492;DHT22;10404;51.468;6.762;2023-12-29T00:49:01;9.40;78.10
20492;DHT22;10404;51.468;6.762;2023-12-29T00:51:27;9.40;77.90
20492;DHT22;10404;51.468;6.762;2023-12-29T00:53:52;9.40;77.90
20492;DHT22;10404;51.468;6.762;2023-12-29T00:56:18;9.40;78.00
20492;DHT22;10404;51.468;6.762;2023-12-29T00:58:43;9.40;78.10
20492;DHT22;10404;51.468;6.762;2023-12-29T01:01:09;9.40;77.90
20492;DHT22;10404;51.468;6.762;2023-12-29T01:03:37;9.40;77.90
20492;DHT22;10404;51.468;6.762;2023-12-29T01:06:02;9.40;77.90
20492;DHT22;10404;51.468;6.762;2023-12-29T01:08:28;9.40;77.90
20492;DHT22;10404;51.468;6.762;2023-12-29T01:10:54;9.50;77.90
20492;DHT22;10404;51.468;6.762;2023-12-29T01:13:19;9.50;77.80
20492;DHT22;10404;51.468;6.762;2023-12-29T01:15:45;9.50;77.80
20492;DHT22;10404;51.468;6.762;2023-12-29T01:18:11;9.50;77.90
20492;DHT22;10404;51.468;6.762;2023-12-29T01:20:37;9.50;77.80
20492;DHT22;10404;51.468;6.762;2023-12-29T01:23:05;9.50;77.70
20492;DHT22;10404;51.468;6.762;2023-12-29T01:25:30;9.50;77.70
20492;DHT22;10404;51.468;6.762;2023-12-29T01:27:56;9.50;77.80
20492;DHT22;10404;51.468;6.762;2023-12-29T01:30:21;9.50;77.80
20492;DHT22;10404;51.468;6.762;2023-12-29T01:32:47;9.50;77.80
20492;DHT22;10404;51.468;6.762;2023-12-29T01:35:12;9.50;77.80
20492;DHT22;10404;51.468;6.762;2023-12-29T01:37:38;9.50;77.70
20492;DHT22;10404;51.468;6.762;2023-12-29T01:40:12;9.50;77.80
20492;DHT22;10404;51.468;6.762;2023-12-29T01:42:40;9.50;77.70
20492;DHT22;10404;51.468;6.762;2023-12-29T01:45:24;9.50;77.70
20492;DHT22;10404;51.468;6.762;2023-12-29T01:47:53;9.50;77.70
20492;DHT22;10404;51.468;6.762;2023-12-29T01:50:40;9.50;77.90
20492;DHT22;10404;51.468;6.762;2023-12-29T01:53:21;9.50;78.00
20492;DHT22;10404;51.468;6.762;2023-12-29T01:55:56;9.50;78.10
20492;DHT22;10404;51.468;6.762;2023-12-29T01:58:21;9.50;78.20
20492;DHT22;10404;51.468;6.762;2023-12-29T02:00:47;9.50;78.50
20492;DHT22;10404;51.468;6.762;2023-12-29T02:03:13;9.50;78.70
20492;DHT22;10404;51.468;6.762;2023-12-29T02:08:42;9.40;79.10
20492;DHT22;10404;51.468;6.762;2023-12-29T02:11:09;9.40;79.60
20492;DHT22;10404;51.468;6.762;2023-12-29T02:13:35;9.40;79.70
20492;DHT22;10404;51.468;6.762;2023-12-29T02:16:09;9.40;80.00
20492;DHT22;10404;51.468;6.762;2023-12-29T02:18:39;9.40;80.20
20492;DHT22;10404;51.468;6.762;2023-12-29T02:21:05;9.40;80.40
20492;DHT22;10404;51.468;6.762;2023-12-29T02:23:31;9.40;80.50
20492;DHT22;10404;51.468;6.762;2023-12-29T02:26:01;9.30;80.70
20492;DHT22;10404;51.468;6.762;2023-12-29T02:28:28;9.30;80.80
20492;DHT22;10404;51.468;6.762;2023-12-29T02:33:26;9.20;81.10
20492;DHT22;10404;51.468;6.762;2023-12-29T02:35:56;9.20;81.00
20492;DHT22;10404;51.468;6.762;2023-12-29T02:38:22;9.20;81.20
20492;DHT22;10404;51.468;6.762;2023-12-29T02:40:48;9.20;81.20
20492;DHT22;10404;51.468;6.762;2023-12-29T02:43:14;9.20;81.40
20492;DHT22;10404;51.468;6.762;2023-12-29T02:45:40;9.20;81.50
20492;DHT22;10404;51.468;6.762;2023-12-29T02:48:05;9.20;81.60
20492;DHT22;10404;51.468;6.762;2023-12-29T02:50:31;9.20;81.70
20492;DHT22;10404;51.468;6.762;2023-12-29T02:52:57;9.20;81.70
20492;DHT22;10404;51.468;6.762;2023-12-29T02:55:22;9.10;81.80
20492;DHT22;10404;51.468;6.762;2023-12-29T02:57:48;9.10;81.90
20492;DHT22;10404;51.468;6.762;2023-12-29T03:00:14;9.10;81.90
20492;DHT22;10404;51.468;6.762;2023-12-29T03:02:39;9.10;81.90
20492;DHT22;10404;51.468;6.762;2023-12-29T03:05:05;9.00;82.00
20492;DHT22;10404;51.468;6.762;2023-12-29T03:07:31;9.00;82.00
20492;DHT22;10404;51.468;6.762;2023-12-29T03:09:57;9.00;82.10
20492;DHT22;10404;51.468;6.762;2023-12-29T03:12:22;9.00;82.10
20492;DHT22;10404;51.468;6.762;2023-12-29T03:14:48;9.00;82.00
20492;DHT22;10404;51.468;6.762;2023-12-29T03:17:13;9.00;82.10
20492;DHT22;10404;51.468;6.762;2023-12-29T03:19:39;9.00;82.20
20492;DHT22;10404;51.468;6.762;2023-12-29T03:22:04;9.00;82.10
20492;DHT22;10404;51.468;6.762;2023-12-29T03:24:30;9.00;82.10
20492;DHT22;10404;51.468;6.762;2023-12-29T03:26:56;9.00;82.10
20492;DHT22;10404;51.468;6.762;2023-12-29T03:29:22;9.00;82.20
20492;DHT22;10404;51.468;6.762;2023-12-29T03:31:47;9.00;82.20
20492;DHT22;10404;51.468;6.762;2023-12-29T03:34:13;9.00;82.10
20492;DHT22;10404;51.468;6.762;2023-12-29T03:36:39;9.00;82.20
20492;DHT22;10404;51.468;6.762;2023-12-29T03:39:04;9.00;82.20
20492;DHT22;10404;51.468;6.762;2023-12-29T03:41:30;9.00;82.20
20492;DHT22;10404;51.468;6.762;2023-12-29T03:43:55;9.00;82.20
20492;DHT22;10404;51.468;6.762;2023-12-29T03:46:25;9.00;82.10
20492;DHT22;10404;51.468;6.762;2023-12-29T03:48:51;9.00;82.10
20492;DHT22;10404;51.468;6.762;2023-12-29T03:51:17;9.00;82.10
20492;DHT22;10404;51.468;6.762;2023-12-29T03:53:43;8.90;82.20
20492;DHT22;10404;51.468;6.762;2023-12-29T03:56:13;8.90;82.10
20492;DHT22;10404;51.468;6.762;2023-12-29T03:58:39;9.00;82.10
20492;DHT22;10404;51.468;6.762;2023-12-29T04:01:13;9.00;82.00
20492;DHT22;10404;51.468;6.762;2023-12-29T04:03:39;8.90;82.10
20492;DHT22;10404;51.468;6.762;2023-12-29T04:06:05;8.90;82.10
20492;DHT22;10404;51.468;6.762;2023-12-29T04:08:35;8.90;82.10
20492;DHT22;10404;51.468;6.762;2023-12-29T04:11:01;8.90;82.10
20492;DHT22;10404;51.468;6.762;2023-12-29T04:13:26;8.90;82.10
20492;DHT22;10404;51.468;6.762;2023-12-29T04:15:52;8.90;82.10
20492;DHT22;10404;51.468;6.762;2023-12-29T04:18:20;8.90;82.10
20492;DHT22;10404;51.468;6.762;2023-12-29T04:20:46;8.90;82.20
20492;DHT22;10404;51.468;6.762;2023-12-29T04:23:11;8.90;82.10
20492;DHT22;10404;51.468;6.762;2023-12-29T04:25:38;8.90;82.00
20492;DHT22;10404;51.468;6.762;2023-12-29T04:28:03;8.90;82.10
20492;DHT22;10404;51.468;6.762;2023-12-29T04:30:29;8.90;82.10
20492;DHT22;10404;51.468;6.762;2023-12-29T04:32:54;8.90;82.00
20492;DHT22;10404;51.468;6.762;2023-12-29T04:35:21;8.90;82.00
20492;DHT22;10404;51.468;6.762;2023-12-29T04:37:47;8.90;81.90
20492;DHT22;10404;51.468;6.762;2023-12-29T04:40:13;8.90;81.90
20492;DHT22;10404;51.468;6.762;2023-12-29T04:42:38;8.90;81.90
20492;DHT22;10404;51.468;6.762;2023-12-29T04:45:04;8.90;81.90
20492;DHT22;10404;51.468;6.762;2023-12-29T04:47:31;8.90;81.80
20492;DHT22;10404;51.468;6.762;2023-12-29T04:49:56;8.90;81.90
20492;DHT22;10404;51.468;6.762;2023-12-29T04:52:22;8.90;81.80
20492;DHT22;10404;51.468;6.762;2023-12-29T04:54:48;8.90;81.90
20492;DHT22;10404;51.468;6.762;2023-12-29T04:57:14;8.90;81.80
20492;DHT22;10404;51.468;6.762;2023-12-29T04:59:39;8.90;82.00
20492;DHT22;10404;51.468;6.762;2023-12-29T05:02:05;8.80;81.90
20492;DHT22;10404;51.468;6.762;2023-12-29T05:04:31;8.90;81.90
20492;DHT22;10404;51.468;6.762;2023-12-29T05:06:57;8.80;81.80
20492;DHT22;10404;51.468;6.762;2023-12-29T05:09:22;8.80;81.90
20492;DHT22;10404;51.468;6.762;2023-12-29T05:11:48;8.90;81.80
20492;DHT22;10404;51.468;6.762;2023-12-29T05:14:14;8.80;81.80
20492;DHT22;10404;51.468;6.762;2023-12-29T05:16:41;8.80;81.80
20492;DHT22;10404;51.468;6.762;2023-12-29T05:19:06;8.80;81.70
20492;DHT22;10404;51.468;6.762;2023-12-29T05:21:32;8.80;81.70
20492;DHT22;10404;51.468;6.762;2023-12-29T05:23:57;8.80;81.60
20492;DHT22;10404;51.468;6.762;2023-12-29T05:26:23;8.80;81.60
20492;DHT22;10404;51.468;6.762;2023-12-29T05:28:49;8.80;81.60
20492;DHT22;10404;51.468;6.762;2023-12-29T05:31:14;8.80;81.60
20492;DHT22;10404;51.468;6.762;2023-12-29T05:33:40;8.80;81.60
20492;DHT22;10404;51.468;6.762;2023-12-29T05:36:07;8.80;81.60
20492;DHT22;10404;51.468;6.762;2023-12-29T05:38:36;8.80;81.60
20492;DHT22;10404;51.468;6.762;2023-12-29T05:41:05;8.80;81.70
20492;DHT22;10404;51.468;6.762;2023-12-29T05:43:32;8.80;81.70
20492;DHT22;10404;51.468;6.762;2023-12-29T05:46:01;8.80;81.70
20492;DHT22;10404;51.468;6.762;2023-12-29T05:48:27;8.80;81.60
20492;DHT22;10404;51.468;6.762;2023-12-29T05:50:53;8.70;81.60
20492;DHT22;10404;51.468;6.762;2023-12-29T05:53:19;8.80;81.60
20492;DHT22;10404;51.468;6.762;2023-12-29T05:55:44;8.70;81.60
20492;DHT22;10404;51.468;6.762;2023-12-29T05:58:11;8.80;81.60
20492;DHT22;10404;51.468;6.762;2023-12-29T06:00:37;8.70;81.60
20492;DHT22;10404;51.468;6.762;2023-12-29T06:03:03;8.70;81.50
20492;DHT22;10404;51.468;6.762;2023-12-29T06:05:32;8.70;81.50
20492;DHT22;10404;51.468;6.762;2023-12-29T06:07:57;8.70;81.50
20492;DHT22;10404;51.468;6.762;2023-12-29T06:10:23;8.80;81.40
20492;DHT22;10404;51.468;6.762;2023-12-29T06:12:49;8.70;81.50
20492;DHT22;10404;51.468;6.762;2023-12-29T06:15:15;8.70;81.50
20492;DHT22;10404;51.468;6.762;2023-12-29T06:17:40;8.70;81.50
20492;DHT22;10404;51.468;6.762;2023-12-29T06:20:07;8.70;81.50
20492;DHT22;10404;51.468;6.762;2023-12-29T06:22:38;8.70;81.50
20492;DHT22;10404;51.468;6.762;2023-12-29T06:25:04;8.70;81.50
20492;DHT22;10404;51.468;6.762;2023-12-29T06:27:30;8.70;81.50
20492;DHT22;10404;51.468;6.762;2023-12-29T06:29:57;8.70;81.50
20492;DHT22;10404;51.468;6.762;2023-12-29T06:32:23;8.70;81.50
20492;DHT22;10404;51.468;6.762;2023-12-29T06:34:48;8.60;81.60
20492;DHT22;10404;51.468;6.762;2023-12-29T06:37:14;8.60;81.60
20492;DHT22;10404;51.468;6.762;2023-12-29T06:39:40;8.60;81.60
20492;DHT22;10404;51.468;6.762;2023-12-29T06:42:05;8.60;81.60
20492;DHT22;10404;51.468;6.762;2023-12-29T06:44:31;8.60;81.60
20492;DHT22;10404;51.468;6.762;2023-12-29T06:46:56;8.60;81.60
20492;DHT22;10404;51.468;6.762;2023-12-29T06:49:22;8.60;81.70
20492;DHT22;10404;51.468;6.762;2023-12-29T06:51:48;8.60;81.70
20492;DHT22;10404;51.468;6.762;2023-12-29T06:54:14;8.60;81.70
20492;DHT22;10404;51.468;6.762;2023-12-29T06:56:39;8.60;81.70
20492;DHT22;10404;51.468;6.762;2023-12-29T06:59:06;8.70;81.60
20492;DHT22;10404;51.468;6.762;2023-12-29T07:01:32;8.70;81.50
20492;DHT22;10404;51.468;6.762;2023-12-29T07:03:58;8.70;81.60
20492;DHT22;10404;51.468;6.762;2023-12-29T07:06:23;8.70;81.60
20492;DHT22;10404;51.468;6.762;2023-12-29T07:08:49;8.70;81.70
20492;DHT22;10404;51.468;6.762;2023-12-29T07:11:15;8.60;81.80
20492;DHT22;10404;51.468;6.762;2023-12-29T07:13:40;8.70;81.80
20492;DHT22;10404;51.468;6.762;2023-12-29T07:16:06;8.60;81.90
20492;DHT22;10404;51.468;6.762;2023-12-29T07:18:31;8.70;82.10
20492;DHT22;10404;51.468;6.762;2023-12-29T07:20:57;8.70;82.20
20492;DHT22;10404;51.468;6.762;2023-12-29T07:23:23;8.60;82.30
20492;DHT22;10404;51.468;6.762;2023-12-29T07:25:49;8.60;82.50
20492;DHT22;10404;51.468;6.762;2023-12-29T07:28:14;8.70;82.50
20492;DHT22;10404;51.468;6.762;2023-12-29T07:30:40;8.60;82.70
20492;DHT22;10404;51.468;6.762;2023-12-29T07:33:06;8.60;82.70
20492;DHT22;10404;51.468;6.762;2023-12-29T07:35:32;8.70;82.70
20492;DHT22;10404;51.468;6.762;2023-12-29T07:37:57;8.70;82.90
20492;DHT22;10404;51.468;6.762;2023-12-29T07:40:23;8.60;83.10
20492;DHT22;10404;51.468;6.762;2023-12-29T07:42:48;8.60;83.00
20492;DHT22;10404;51.468;6.762;2023-12-29T07:45:16;8.60;83.10
20492;DHT22;10404;51.468;6.762;2023-12-29T07:47:42;8.60;83.20
20492;DHT22;10404;51.468;6.762;2023-12-29T07:50:11;8.60;83.20
20492;DHT22;10404;51.468;6.762;2023-12-29T07:52:37;8.60;83.30
20492;DHT22;10404;51.468;6.762;2023-12-29T07:55:03;8.60;83.30
20492;DHT22;10404;51.468;6.762;2023-12-29T07:57:29;8.60;83.40
20492;DHT22;10404;51.468;6.762;2023-12-29T07:59:54;8.60;83.30
20492;DHT22;10404;51.468;6.762;2023-12-29T08:02:21;8.60;83.40
20492;DHT22;10404;51.468;6.762;2023-12-29T08:04:46;8.60;83.40
20492;DHT22;10404;51.468;6.762;2023-12-29T08:07:13;8.60;83.50
20492;DHT22;10404;51.468;6.762;2023-12-29T08:09:39;8.60;83.40
20492;DHT22;10404;51.468;6.762;2023-12-29T08:12:05;8.60;83.40
20492;DHT22;10404;51.468;6.762;2023-12-29T08:14:31;8.60;83.50
20492;DHT22;10404;51.468;6.762;2023-12-29T08:16:56;8.60;83.60
20492;DHT22;10404;51.468;6.762;2023-12-29T08:19:22;8.60;83.50
20492;DHT22;10404;51.468;6.762;2023-12-29T08:21:48;8.60;83.60
20492;DHT22;10404;51.468;6.762;2023-12-29T08:24:13;8.60;83.50
20492;DHT22;10404;51.468;6.762;2023-12-29T08:26:45;8.60;83.60
20492;DHT22;10404;51.468;6.762;2023-12-29T08:29:11;8.60;83.60
20492;DHT22;10404;51.468;6.762;2023-12-29T08:31:37;8.60;83.60
20492;DHT22;10404;51.468;6.762;2023-12-29T08:34:03;8.60;83.70
20492;DHT22;10404;51.468;6.762;2023-12-29T08:36:28;8.60;83.90
20492;DHT22;10404;51.468;6.762;2023-12-29T08:38:54;8.60;84.00
20492;DHT22;10404;51.468;6.762;2023-12-29T08:41:19;8.60;84.00
20492;DHT22;10404;51.468;6.762;2023-12-29T08:43:45;8.60;83.90
20492;DHT22;10404;51.468;6.762;2023-12-29T08:46:10;8.60;84.20
20492;DHT22;10404;51.468;6.762;2023-12-29T08:48:37;8.60;84.20
20492;DHT22;10404;51.468;6.762;2023-12-29T08:51:03;8.60;84.20
20492;DHT22;10404;51.468;6.762;2023-12-29T08:53:28;8.60;84.30
20492;DHT22;10404;51.468;6.762;2023-12-29T08:55:56;8.60;84.20
20492;DHT22;10404;51.468;6.762;2023-12-29T08:58:22;8.60;84.30
20492;DHT22;10404;51.468;6.762;2023-12-29T09:00:47;8.60;84.40
20492;DHT22;10404;51.468;6.762;2023-12-29T09:03:13;8.60;84.40
20492;DHT22;10404;51.468;6.762;2023-12-29T09:05:39;8.60;84.20
20492;DHT22;10404;51.468;6.762;2023-12-29T09:08:05;8.60;84.30
20492;DHT22;10404;51.468;6.762;2023-12-29T09:10:30;8.60;84.30
20492;DHT22;10404;51.468;6.762;2023-12-29T09:12:56;8.60;84.30
20492;DHT22;10404;51.468;6.762;2023-12-29T09:15:21;8.60;84.40
20492;DHT22;10404;51.468;6.762;2023-12-29T09:17:48;8.60;84.20
20492;DHT22;10404;51.468;6.762;2023-12-29T09:20:14;8.60;84.20
20492;DHT22;10404;51.468;6.762;2023-12-29T09:22:40;8.60;84.40
20492;DHT22;10404;51.468;6.762;2023-12-29T09:25:05;8.60;84.50
20492;DHT22;10404;51.468;6.762;2023-12-29T09:27:31;8.60;84.50
20492;DHT22;10404;51.468;6.762;2023-12-29T09:29:57;8.60;84.50
20492;DHT22;10404;51.468;6.762;2023-12-29T09:32:22;8.60;84.50
20492;DHT22;10404;51.468;6.762;2023-12-29T09:34:48;8.60;84.50
20492;DHT22;10404;51.468;6.762;2023-12-29T09:37:13;8.60;84.50
20492;DHT22;10404;51.468;6.762;2023-12-29T09:39:39;8.60;84.40
20492;DHT22;10404;51.468;6.762;2023-12-29T09:42:05;8.60;84.50
20492;DHT22;10404;51.468;6.762;2023-12-29T09:44:32;8.60;84.40
20492;DHT22;10404;51.468;6.762;2023-12-29T09:47:02;8.60;84.40
20492;DHT22;10404;51.468;6.762;2023-12-29T09:49:38;8.60;84.50
20492;DHT22;10404;51.468;6.762;2023-12-29T09:52:09;8.70;84.50
20492;DHT22;10404;51.468;6.762;2023-12-29T09:54:36;8.60;84.50
20492;DHT22;10404;51.468;6.762;2023-12-29T09:57:04;8.60;84.60
20492;DHT22;10404;51.468;6.762;2023-12-29T09:59:33;8.70;84.70
20492;DHT22;10404;51.468;6.762;2023-12-29T10:02:01;8.60;85.00
20492;DHT22;10404;51.468;6.762;2023-12-29T10:04:28;8.60;84.90
20492;DHT22;10404;51.468;6.762;2023-12-29T10:06:55;8.60;85.10
20492;DHT22;10404;51.468;6.762;2023-12-29T10:09:22;8.60;85.30
20492;DHT22;10404;51.468;6.762;2023-12-29T10:11:50;8.70;85.40
20492;DHT22;10404;51.468;6.762;2023-12-29T10:14:24;8.70;85.40
20492;DHT22;10404;51.468;6.762;2023-12-29T10:17:06;8.60;85.30
20492;DHT22;10404;51.468;6.762;2023-12-29T10:19:39;8.60;85.50
20492;DHT22;10404;51.468;6.762;2023-12-29T10:22:21;8.60;85.60
20492;DHT22;10404;51.468;6.762;2023-12-29T10:24:50;8.60;85.80
20492;DHT22;10404;51.468;6.762;2023-12-29T10:27:16;8.60;85.60
20492;DHT22;10404;51.468;6.762;2023-12-29T10:29:42;8.60;85.70
20492;DHT22;10404;51.468;6.762;2023-12-29T10:32:07;8.60;85.90
20492;DHT22;10404;51.468;6.762;2023-12-29T10:34:35;8.60;85.80
20492;DHT22;10404;51.468;6.762;2023-12-29T10:37:02;8.60;85.90
20492;DHT22;10404;51.468;6.762;2023-12-29T10:39:35;8.70;86.00
20492;DHT22;10404;51.468;6.762;2023-12-29T10:42:07;8.70;85.90
20492;DHT22;10404;51.468;6.762;2023-12-29T10:44:35;8.70;86.10
20492;DHT22;10404;51.468;6.762;2023-12-29T10:47:13;8.70;86.20
20492;DHT22;10404;51.468;6.762;2023-12-29T10:49:40;8.70;86.10
20492;DHT22;10404;51.468;6.762;2023-12-29T10:52:13;8.80;86.10
20492;DHT22;10404;51.468;6.762;2023-12-29T10:54:42;8.70;86.10
20492;DHT22;10404;51.468;6.762;2023-12-29T10:57:10;8.80;86.20
20492;DHT22;10404;51.468;6.762;2023-12-29T10:59:36;8.80;86.10
20492;DHT22;10404;51.468;6.762;2023-12-29T11:02:01;8.80;86.00
20492;DHT22;10404;51.468;6.762;2023-12-29T11:04:30;8.80;86.00
20492;DHT22;10404;51.468;6.762;2023-12-29T11:06:56;8.80;85.90
20492;DHT22;10404;51.468;6.762;2023-12-29T11:09:32;8.80;85.80
20492;DHT22;10404;51.468;6.762;2023-12-29T11:12:03;8.80;85.80
20492;DHT22;10404;51.468;6.762;2023-12-29T11:14:29;8.80;85.60
20492;DHT22;10404;51.468;6.762;2023-12-29T11:16:56;8.90;85.60
20492;DHT22;10404;51.468;6.762;2023-12-29T11:19:22;8.90;85.40
20492;DHT22;10404;51.468;6.762;2023-12-29T11:21:52;8.90;85.40
20492;DHT22;10404;51.468;6.762;2023-12-29T11:24:21;8.90;85.40
20492;DHT22;10404;51.468;6.762;2023-12-29T11:26:51;9.00;85.40
20492;DHT22;10404;51.468;6.762;2023-12-29T11:29:18;9.00;85.40
20492;DHT22;10404;51.468;6.762;2023-12-29T11:31:45;9.00;85.30
20492;DHT22;10404;51.468;6.762;2023-12-29T11:34:23;9.00;85.50
20492;DHT22;10404;51.468;6.762;2023-12-29T11:37:00;9.00;85.40
20492;DHT22;10404;51.468;6.762;2023-12-29T11:40:09;9.00;85.40
20492;DHT22;10404;51.468;6.762;2023-12-29T11:42:40;9.00;85.40
20492;DHT22;10404;51.468;6.762;2023-12-29T11:45:44;9.00;85.40
20492;DHT22;10404;51.468;6.762;2023-12-29T11:48:10;9.00;85.30
20492;DHT22;10404;51.468;6.762;2023-12-29T11:50:38;9.10;85.30
20492;DHT22;10404;51.468;6.762;2023-12-29T11:53:06;9.10;85.30
20492;DHT22;10404;51.468;6.762;2023-12-29T11:55:36;9.20;85.20
20492;DHT22;10404;51.468;6.762;2023-12-29T11:58:03;9.20;85.30
20492;DHT22;10404;51.468;6.762;2023-12-29T12:00:46;9.20;85.30
20492;DHT22;10404;51.468;6.762;2023-12-29T12:03:25;9.20;85.30
20492;DHT22;10404;51.468;6.762;2023-12-29T12:05:52;9.20;85.20
20492;DHT22;10404;51.468;6.762;2023-12-29T12:08:30;9.20;85.20
20492;DHT22;10404;51.468;6.762;2023-12-29T12:10:57;9.20;85.30
20492;DHT22;10404;51.468;6.762;2023-12-29T12:13:45;9.20;85.30
20492;DHT22;10404;51.468;6.762;2023-12-29T12:19:12;9.20;85.30
20492;DHT22;10404;51.468;6.762;2023-12-29T12:21:38;9.20;85.50
20492;DHT22;10404;51.468;6.762;2023-12-29T12:24:04;9.30;85.50
20492;DHT22;10404;51.468;6.762;2023-12-29T12:26:33;9.20;85.50
20492;DHT22;10404;51.468;6.762;2023-12-29T12:29:00;9.20;85.60
20492;DHT22;10404;51.468;6.762;2023-12-29T12:31:26;9.20;85.60
20492;DHT22;10404;51.468;6.762;2023-12-29T12:33:58;9.30;85.70
20492;DHT22;10404;51.468;6.762;2023-12-29T12:36:26;9.30;85.50
20492;DHT22;10404;51.468;6.762;2023-12-29T12:38:56;9.30;85.50
20492;DHT22;10404;51.468;6.762;2023-12-29T12:41:25;9.40;85.50
20492;DHT22;10404;51.468;6.762;2023-12-29T12:44:00;9.40;85.60
20492;DHT22;10404;51.468;6.762;2023-12-29T12:46:33;9.40;85.50
20492;DHT22;10404;51.468;6.762;2023-12-29T12:49:00;9.40;85.60
20492;DHT22;10404;51.468;6.762;2023-12-29T12:51:25;9.40;85.80
20492;DHT22;10404;51.468;6.762;2023-12-29T12:53:51;9.30;85.90
20492;DHT22;10404;51.468;6.762;2023-12-29T12:56:18;9.40;86.00
20492;DHT22;10404;51.468;6.762;2023-12-29T12:58:45;9.30;86.20
20492;DHT22;10404;51.468;6.762;2023-12-29T13:01:11;9.30;86.20
20492;DHT22;10404;51.468;6.762;2023-12-29T13:03:38;9.30;86.30
20492;DHT22;10404;51.468;6.762;2023-12-29T13:06:04;9.30;86.30
20492;DHT22;10404;51.468;6.762;2023-12-29T13:08:30;9.40;86.50
20492;DHT22;10404;51.468;6.762;2023-12-29T13:10:58;9.30;86.50
20492;DHT22;10404;51.468;6.762;2023-12-29T13:13:41;9.30;86.50
20492;DHT22;10404;51.468;6.762;2023-12-29T13:16:08;9.40;86.40
20492;DHT22;10404;51.468;6.762;2023-12-29T13:18:34;9.40;86.40
20492;DHT22;10404;51.468;6.762;2023-12-29T13:21:01;9.40;86.40
20492;DHT22;10404;51.468;6.762;2023-12-29T13:23:28;9.40;86.40
20492;DHT22;10404;51.468;6.762;2023-12-29T13:25:57;9.40;86.50
20492;DHT22;10404;51.468;6.762;2023-12-29T13:28:25;9.40;86.50
20492;DHT22;10404;51.468;6.762;2023-12-29T13:30:52;9.40;86.40
20492;DHT22;10404;51.468;6.762;2023-12-29T13:33:35;9.40;86.50
20492;DHT22;10404;51.468;6.762;2023-12-29T13:36:10;9.40;86.50
20492;DHT22;10404;51.468;6.762;2023-12-29T13:38:44;9.40;86.60
20492;DHT22;10404;51.468;6.762;2023-12-29T13:41:16;9.40;86.50
20492;DHT22;10404;51.468;6.762;2023-12-29T13:43:44;9.40;86.60
20492;DHT22;10404;51.468;6.762;2023-12-29T13:46:11;9.40;86.60
20492;DHT22;10404;51.468;6.762;2023-12-29T13:48:39;9.40;86.50
20492;DHT22;10404;51.468;6.762;2023-12-29T13:51:06;9.40;86.60
20492;DHT22;10404;51.468;6.762;2023-12-29T13:53:32;9.40;86.70
20492;DHT22;10404;51.468;6.762;2023-12-29T13:56:11;9.40;86.60
20492;DHT22;10404;51.468;6.762;2023-12-29T13:58:37;9.40;86.50
20492;DHT22;10404;51.468;6.762;2023-12-29T14:01:06;9.40;86.60
20492;DHT22;10404;51.468;6.762;2023-12-29T14:03:42;9.40;86.50
20492;DHT22;10404;51.468;6.762;2023-12-29T14:06:18;9.40;86.40
20492;DHT22;10404;51.468;6.762;2023-12-29T14:08:45;9.40;86.40
20492;DHT22;10404;51.468;6.762;2023-12-29T14:11:11;9.40;86.40
20492;DHT22;10404;51.468;6.762;2023-12-29T14:13:46;9.40;86.40
20492;DHT22;10404;51.468;6.762;2023-12-29T14:16:15;9.40;86.30
20492;DHT22;10404;51.468;6.762;2023-12-29T14:21:21;9.40;86.30
20492;DHT22;10404;51.468;6.762;2023-12-29T14:26:32;9.40;86.10
20492;DHT22;10404;51.468;6.762;2023-12-29T14:29:05;9.40;86.00
20492;DHT22;10404;51.468;6.762;2023-12-29T14:31:41;9.40;86.00
20492;DHT22;10404;51.468;6.762;2023-12-29T14:34:08;9.40;85.90
20492;DHT22;10404;51.468;6.762;2023-12-29T14:36:35;9.40;85.80
20492;DHT22;10404;51.468;6.762;2023-12-29T14:39:01;9.40;85.70
20492;DHT22;10404;51.468;6.762;2023-12-29T14:41:28;9.40;85.50
20492;DHT22;10404;51.468;6.762;2023-12-29T14:43:53;9.40;85.50
20492;DHT22;10404;51.468;6.762;2023-12-29T14:46:19;9.40;85.40
20492;DHT22;10404;51.468;6.762;2023-12-29T14:48:45;9.40;85.40
20492;DHT22;10404;51.468;6.762;2023-12-29T14:51:11;9.40;85.30
20492;DHT22;10404;51.468;6.762;2023-12-29T14:53:37;9.40;85.30
20492;DHT22;10404;51.468;6.762;2023-12-29T14:56:04;9.40;85.20
20492;DHT22;10404;51.468;6.762;2023-12-29T14:58:29;9.40;85.10
20492;DHT22;10404;51.468;6.762;2023-12-29T15:00:57;9.40;85.10
20492;DHT22;10404;51.468;6.762;2023-12-29T15:03:23;9.40;85.00
20492;DHT22;10404;51.468;6.762;2023-12-29T15:05:49;9.40;84.80
20492;DHT22;10404;51.468;6.762;2023-12-29T15:08:15;9.40;84.80
20492;DHT22;10404;51.468;6.762;2023-12-29T15:10:41;9.40;84.80
20492;DHT22;10404;51.468;6.762;2023-12-29T15:13:07;9.40;84.80
20492;DHT22;10404;51.468;6.762;2023-12-29T15:15:33;9.40;84.80
20492;DHT22;10404;51.468;6.762;2023-12-29T15:17:59;9.40;84.80
20492;DHT22;10404;51.468;6.762;2023-12-29T15:20:25;9.40;84.90
20492;DHT22;10404;51.468;6.762;2023-12-29T15:22:50;9.30;84.90
20492;DHT22;10404;51.468;6.762;2023-12-29T15:25:17;9.30;85.00
20492;DHT22;10404;51.468;6.762;2023-12-29T15:27:43;9.30;85.10
20492;DHT22;10404;51.468;6.762;2023-12-29T15:30:08;9.20;85.20
20492;DHT22;10404;51.468;6.762;2023-12-29T15:32:37;9.30;85.30
20492;DHT22;10404;51.468;6.762;2023-12-29T15:35:02;9.30;85.30
20492;DHT22;10404;51.468;6.762;2023-12-29T15:37:29;9.30;85.50
20492;DHT22;10404;51.468;6.762;2023-12-29T15:39:54;9.20;85.50
20492;DHT22;10404;51.468;6.762;2023-12-29T15:42:20;9.20;85.70
20492;DHT22;10404;51.468;6.762;2023-12-29T15:44:45;9.20;85.80
20492;DHT22;10404;51.468;6.762;2023-12-29T15:47:11;9.20;85.80
20492;DHT22;10404;51.468;6.762;2023-12-29T15:49:37;9.20;85.90
20492;DHT22;10404;51.468;6.762;2023-12-29T15:52:03;9.20;85.80
20492;DHT22;10404;51.468;6.762;2023-12-29T15:54:29;9.20;86.00
20492;DHT22;10404;51.468;6.762;2023-12-29T15:56:54;9.20;86.10
20492;DHT22;10404;51.468;6.762;2023-12-29T15:59:20;9.20;86.10